createdAt,value
2019-04-03T00:00:55.418Z,1.93
2019-04-03T00:09:11.393Z,2.07
2019-04-03T00:11:42.540Z,1.80
2019-04-03T00:14:13.060Z,1.80
2019-04-03T00:16:45.515Z,1.90
2019-04-03T00:19:18.089Z,1.67
2019-04-03T00:21:50.628Z,1.77
2019-04-03T00:24:22.680Z,1.70
2019-04-03T00:26:54.688Z,1.50
2019-04-03T00:29:25.636Z,1.60
2019-04-03T00:31:56.406Z,1.63
2019-04-03T00:34:28.465Z,2.07
2019-04-03T00:36:59.308Z,1.50
2019-04-03T00:39:30.008Z,1.77
2019-04-03T00:42:00.942Z,2.03
2019-04-03T00:44:31.672Z,1.70
2019-04-03T00:47:03.558Z,1.80
2019-04-03T00:49:34.180Z,1.67
2019-04-03T00:52:05.180Z,1.63
2019-04-03T00:54:36.033Z,1.87
2019-04-03T00:57:06.974Z,1.80
2019-04-03T00:59:37.934Z,1.70
2019-04-03T01:02:08.649Z,1.33
2019-04-03T01:04:39.380Z,2.43
2019-04-03T01:07:10.240Z,1.60
2019-04-03T01:09:43.307Z,2.13
2019-04-03T01:12:14.113Z,1.73
2019-04-03T01:14:45.050Z,1.57
2019-04-03T01:17:15.758Z,1.80
2019-04-03T01:19:46.579Z,1.67
2019-04-03T01:22:18.240Z,1.53
2019-04-03T01:24:48.926Z,2.07
2019-04-03T01:27:19.732Z,1.73
2019-04-03T01:29:50.284Z,2.00
2019-04-03T01:32:20.914Z,1.50
2019-04-03T01:34:51.700Z,1.90
2019-04-03T01:37:22.416Z,1.50
2019-04-03T01:39:53.364Z,1.67
2019-04-03T01:42:24.305Z,1.27
2019-04-03T01:44:56.006Z,1.73
2019-04-03T01:47:28.161Z,1.60
2019-04-03T01:49:59.143Z,1.20
2019-04-03T01:52:31.882Z,1.73
2019-04-03T01:55:04.067Z,1.50
2019-04-03T01:57:36.707Z,1.80
2019-04-03T02:00:08.232Z,1.40
2019-04-03T02:02:39.202Z,1.40
2019-04-03T02:05:12.118Z,1.60
2019-04-03T02:07:44.664Z,1.50
2019-04-03T02:10:18.278Z,1.60
2019-04-03T02:12:51.230Z,1.63
2019-04-03T02:15:22.335Z,1.40
2019-04-03T02:17:54.927Z,1.40
2019-04-03T02:20:27.252Z,1.60
2019-04-03T02:23:00.247Z,1.50
2019-04-03T02:25:32.128Z,1.47
2019-04-03T02:28:03.831Z,1.80
2019-04-03T02:30:35.540Z,1.70
2019-04-03T02:33:06.213Z,1.60
2019-04-03T02:35:39.603Z,1.60
2019-04-03T02:38:09.305Z,1.53
2019-04-03T02:40:40.022Z,1.80
2019-04-03T02:43:13.520Z,1.63
2019-04-03T02:45:42.922Z,1.80
2019-04-03T02:48:13.930Z,1.80
2019-04-03T02:50:47.895Z,1.70
2019-04-03T02:53:17.301Z,1.50
2019-04-03T02:55:47.917Z,1.60
2019-04-03T02:58:21.307Z,1.63
2019-04-03T03:00:51.463Z,2.00
2019-04-03T03:03:22.498Z,1.47
2019-04-03T03:05:53.273Z,1.53
2019-04-03T03:08:24.130Z,1.93
2019-04-03T03:10:54.837Z,1.77
2019-04-03T03:13:25.929Z,1.47
2019-04-03T03:15:57.885Z,1.33
2019-04-03T03:18:29.226Z,1.60
2019-04-03T03:21:01.885Z,1.77
2019-04-03T03:23:33.684Z,1.87
2019-04-03T03:26:06.229Z,1.43
2019-04-03T03:28:36.948Z,1.53
2019-04-03T03:31:09.740Z,1.50
2019-04-03T03:33:42.380Z,1.63
2019-04-03T03:36:20.117Z,1.70
2019-04-03T03:38:46.186Z,1.83
2019-04-03T03:41:22.136Z,1.30
2019-04-03T03:43:50.029Z,2.30
2019-04-03T03:46:26.115Z,1.30
2019-04-03T03:48:54.379Z,1.60
2019-04-03T03:51:25.438Z,1.53
2019-04-03T03:53:58.303Z,1.73
2019-04-03T03:56:31.600Z,1.83
2019-04-03T03:59:03.253Z,1.90
2019-04-03T04:01:34.334Z,1.40
2019-04-03T04:04:05.351Z,1.80
2019-04-03T04:06:36.810Z,2.10
2019-04-03T04:09:08.477Z,1.57
2019-04-03T04:11:39.949Z,1.70
2019-04-03T04:14:11.611Z,1.87
2019-04-03T04:16:42.541Z,1.70
2019-04-03T04:19:13.484Z,1.60
2019-04-03T04:21:45.230Z,1.70
2019-04-03T04:24:16.109Z,1.83
2019-04-03T04:26:49.667Z,1.70
2019-04-03T04:29:19.220Z,1.77
2019-04-03T04:31:51.031Z,1.80
2019-04-03T04:34:21.633Z,1.77
2019-04-03T04:36:55.389Z,1.63
2019-04-03T04:39:28.006Z,1.83
2019-04-03T04:41:58.217Z,1.90
2019-04-03T04:44:29.161Z,1.50
2019-04-03T04:46:59.828Z,1.87
2019-04-03T04:49:30.633Z,2.10
2019-04-03T04:52:01.737Z,1.83
2019-04-03T04:54:32.707Z,2.00
2019-04-03T04:57:03.322Z,1.93
2019-04-03T04:59:36.274Z,2.23
2019-04-03T05:02:06.303Z,1.80
2019-04-03T05:04:37.273Z,2.50
2019-04-03T05:07:08.189Z,2.10
2019-04-03T05:09:38.847Z,2.00
2019-04-03T05:12:10.299Z,2.53
2019-04-03T05:14:41.158Z,1.93
2019-04-03T05:17:12.060Z,2.03
2019-04-03T05:25:29.277Z,2.30
2019-04-03T05:30:42.159Z,2.50
2019-04-03T05:33:14.177Z,2.60
2019-04-03T05:35:46.269Z,2.30
2019-04-03T05:38:17.221Z,2.60
2019-04-03T05:40:48.053Z,2.63
2019-04-03T05:43:18.696Z,2.67
2019-04-03T05:45:49.680Z,2.37
2019-04-03T05:48:20.557Z,2.50
2019-04-03T05:50:51.303Z,2.27
2019-04-03T05:53:22.231Z,2.30
2019-04-03T05:55:53.391Z,2.33
2019-04-03T05:58:24.153Z,2.50
2019-04-03T06:01:04.357Z,2.57
2019-04-03T06:03:38.853Z,2.43
2019-04-03T06:05:59.650Z,2.43
2019-04-03T06:08:30.492Z,2.70
2019-04-03T06:11:03.956Z,3.40
2019-04-03T06:13:33.908Z,2.53
2019-04-03T06:16:05.680Z,2.20
2019-04-03T06:18:37.556Z,3.10
2019-04-03T06:21:08.406Z,2.63
2019-04-03T06:23:39.028Z,2.50
2019-04-03T06:26:10.061Z,2.20
2019-04-03T06:28:42.560Z,2.43
2019-04-03T06:31:13.448Z,2.60
2019-04-03T06:33:44.445Z,2.30
2019-04-03T06:36:17.196Z,2.60
2019-04-03T06:38:47.869Z,2.40
2019-04-03T06:41:18.675Z,2.50
2019-04-03T06:46:38.328Z,2.60
2019-04-03T06:49:09.008Z,2.23
2019-04-03T06:51:40.035Z,2.37
2019-04-03T06:54:11.184Z,2.40
2019-04-03T06:56:42.126Z,2.60
2019-04-03T06:59:15.909Z,2.40
2019-04-03T07:01:45.368Z,2.67
2019-04-03T07:04:16.169Z,2.73
2019-04-03T07:06:48.184Z,2.20
2019-04-03T07:09:24.312Z,2.30
2019-04-03T07:11:51.082Z,2.50
2019-04-03T07:14:21.765Z,2.40
2019-04-03T07:16:52.433Z,3.30
2019-04-03T07:19:23.417Z,3.73
2019-04-03T07:21:55.168Z,3.43
2019-04-03T07:24:26.649Z,2.90
2019-04-03T07:26:57.338Z,2.87
2019-04-03T07:29:28.101Z,3.27
2019-04-03T07:31:59.149Z,3.27
2019-04-03T07:34:30.174Z,3.00
2019-04-03T07:37:01.003Z,3.00
2019-04-03T07:39:31.729Z,3.03
2019-04-03T07:42:02.698Z,2.93
2019-04-03T07:44:33.712Z,3.23
2019-04-03T07:47:04.726Z,3.13
2019-04-03T07:49:35.809Z,2.73
2019-04-03T07:52:06.617Z,2.97
2019-04-03T07:54:37.422Z,2.90
2019-04-03T07:57:10.186Z,2.97
2019-04-03T07:59:40.482Z,3.00
2019-04-03T08:02:12.590Z,2.50
2019-04-03T08:04:44.014Z,2.60
2019-04-03T08:07:14.720Z,2.10
2019-04-03T08:09:45.800Z,2.33
2019-04-03T08:12:17.984Z,2.60
2019-04-03T08:14:48.959Z,2.00
2019-04-03T08:17:20.011Z,2.20
2019-04-03T08:19:53.705Z,2.00
2019-04-03T08:22:22.780Z,2.20
2019-04-03T08:24:54.314Z,2.10
2019-04-03T08:27:25.070Z,1.90
2019-04-03T08:29:55.881Z,2.40
2019-04-03T08:32:26.741Z,2.10
2019-04-03T08:34:57.473Z,1.97
2019-04-03T08:37:31.458Z,1.73
2019-04-03T08:40:01.015Z,2.10
2019-04-03T08:42:32.654Z,1.90
2019-04-03T08:45:06.602Z,2.20
2019-04-03T08:47:38.471Z,2.03
2019-04-03T08:50:10.429Z,1.83
2019-04-03T08:52:41.086Z,1.70
2019-04-03T08:55:14.522Z,2.13
2019-04-03T08:57:46.800Z,2.13
2019-04-03T09:00:19.580Z,2.03
2019-04-03T09:02:50.504Z,2.07
2019-04-03T09:05:21.406Z,2.53
2019-04-03T09:07:55.360Z,2.33
2019-04-03T09:10:24.897Z,2.13
2019-04-03T09:12:55.586Z,2.20
2019-04-03T09:18:15.133Z,2.10
2019-04-03T09:20:46.885Z,2.50
2019-04-03T09:23:17.665Z,2.03
2019-04-03T09:25:49.444Z,2.03
2019-04-03T09:28:20.505Z,2.30
2019-04-03T09:30:53.888Z,2.17
2019-04-03T09:33:25.518Z,2.20
2019-04-03T09:35:58.755Z,2.80
2019-04-03T09:38:28.587Z,2.30
2019-04-03T09:40:59.140Z,2.43
2019-04-03T09:43:30.168Z,2.13
2019-04-03T09:46:01.368Z,2.13
2019-04-03T09:48:32.121Z,2.10
2019-04-03T09:51:02.656Z,2.40
2019-04-03T09:53:33.440Z,2.10
2019-04-03T09:56:07.218Z,2.30
2019-04-03T09:58:36.767Z,2.20
2019-04-03T10:01:07.764Z,2.20
2019-04-03T10:03:38.596Z,1.83
2019-04-03T10:06:09.152Z,1.60
2019-04-03T10:08:40.420Z,1.90
2019-04-03T10:11:14.758Z,1.70
2019-04-03T10:16:35.222Z,1.50
2019-04-03T10:19:05.403Z,1.40
2019-04-03T10:21:36.458Z,1.70
2019-04-03T10:24:07.820Z,1.90
2019-04-03T10:26:40.272Z,1.63
2019-04-03T10:32:00.503Z,1.20
2019-04-03T10:34:31.547Z,1.20
2019-04-03T10:37:02.581Z,1.30
2019-04-03T10:39:33.397Z,1.57
2019-04-03T10:42:04.240Z,1.33
2019-04-03T10:44:35.250Z,1.37
2019-04-03T10:47:06.220Z,1.10
2019-04-03T10:49:37.001Z,1.47
2019-04-03T10:52:08.000Z,1.23
2019-04-03T10:54:39.456Z,1.30
2019-04-03T10:57:10.067Z,0.90
2019-04-03T10:59:40.765Z,1.20
2019-04-03T11:02:11.993Z,1.10
2019-04-03T11:04:42.604Z,0.83
2019-04-03T11:07:13.357Z,1.33
2019-04-03T11:09:44.072Z,1.33
2019-04-03T11:12:16.094Z,1.10
2019-04-03T11:14:47.155Z,1.33
2019-04-03T11:17:18.810Z,0.90
2019-04-03T11:19:49.578Z,1.30
2019-04-03T11:22:20.317Z,1.07
2019-04-03T11:24:50.984Z,1.17
2019-04-03T11:27:25.108Z,1.20
2019-04-03T11:29:54.161Z,0.90
2019-04-03T11:32:25.008Z,1.00
2019-04-03T11:34:56.358Z,0.97
2019-04-03T11:37:27.651Z,0.93
2019-04-03T11:40:04.261Z,1.00
2019-04-03T11:42:30.574Z,0.90
2019-04-03T11:45:04.298Z,0.90
2019-04-03T11:47:35.019Z,1.07
2019-04-03T11:50:06.863Z,1.10
2019-04-03T11:52:37.768Z,0.90
2019-04-03T11:55:10.922Z,1.00
2019-04-03T11:57:42.017Z,1.40
2019-04-03T12:00:19.834Z,1.20
2019-04-03T12:02:50.637Z,1.23
2019-04-03T12:05:21.622Z,1.87
2019-04-03T12:07:52.282Z,1.93
2019-04-03T12:10:25.060Z,1.90
2019-04-03T12:12:55.212Z,2.17
2019-04-03T12:15:26.017Z,1.80
2019-04-03T12:17:56.879Z,1.60
2019-04-03T12:20:27.639Z,2.10
2019-04-03T12:22:58.567Z,2.00
2019-04-03T12:25:29.608Z,1.90
2019-04-03T12:28:00.339Z,1.50
2019-04-03T12:30:31.481Z,1.60
2019-04-03T12:33:02.661Z,1.30
2019-04-03T12:35:33.464Z,1.27
2019-04-03T12:38:04.173Z,1.27
2019-04-03T12:40:35.681Z,1.20
2019-04-03T12:43:06.549Z,0.90
2019-04-03T12:45:37.338Z,1.60
2019-04-03T12:48:08.952Z,1.23
2019-04-03T12:50:40.126Z,1.13
2019-04-03T12:53:10.845Z,1.27
2019-04-03T12:55:42.524Z,1.50
2019-04-03T12:58:13.541Z,1.10
2019-04-03T13:00:46.110Z,1.23
2019-04-03T13:03:16.880Z,1.27
2019-04-03T13:05:48.718Z,1.27
2019-04-03T13:08:21.686Z,1.40
2019-04-03T13:10:52.537Z,1.23
2019-04-03T13:13:23.020Z,1.33
2019-04-03T13:15:53.698Z,1.50
2019-04-03T13:18:24.440Z,1.20
2019-04-03T13:20:55.351Z,1.20
2019-04-03T13:23:25.972Z,1.10
2019-04-03T13:25:56.541Z,1.10
2019-04-03T13:28:27.142Z,1.10
2019-04-03T13:30:58.341Z,1.23
2019-04-03T13:33:29.033Z,0.97
2019-04-03T13:35:59.851Z,1.00
2019-04-03T13:38:30.717Z,0.90
2019-04-03T13:41:04.195Z,1.10
2019-04-03T13:43:34.105Z,1.00
2019-04-03T13:46:05.264Z,1.20
2019-04-03T13:48:36.617Z,1.10
2019-04-03T13:51:07.556Z,1.00
2019-04-03T13:53:38.858Z,1.30
2019-04-03T13:56:11.521Z,1.23
2019-04-03T13:58:41.988Z,1.40
2019-04-03T14:01:13.159Z,1.30
2019-04-03T14:03:44.198Z,1.50
2019-04-03T14:06:15.403Z,1.27
2019-04-03T14:08:46.691Z,1.50
2019-04-03T14:11:17.358Z,1.20
2019-04-03T14:13:48.360Z,1.27
2019-04-03T14:16:22.403Z,1.20
2019-04-03T14:18:51.324Z,1.20
2019-04-03T14:21:22.216Z,1.40
2019-04-03T14:23:53.112Z,0.90
2019-04-03T14:26:23.980Z,0.90
2019-04-03T14:28:55.128Z,1.00
2019-04-03T14:31:34.338Z,0.60
2019-04-03T14:33:58.813Z,1.00
2019-04-03T14:36:29.956Z,1.30
2019-04-03T14:39:02.748Z,0.80
2019-04-03T14:41:35.909Z,0.80
2019-04-03T14:44:07.563Z,0.70
2019-04-03T14:46:39.232Z,0.83
2019-04-03T14:49:09.994Z,0.90
2019-04-03T14:51:41.581Z,1.10
2019-04-03T14:54:13.472Z,1.10
2019-04-03T14:56:44.518Z,1.50
2019-04-03T14:59:15.815Z,1.00
2019-04-03T15:01:46.524Z,0.90
2019-04-03T15:04:17.630Z,1.07
2019-04-03T15:07:00.862Z,1.00
2019-04-03T15:09:20.352Z,1.27
2019-04-03T15:11:51.343Z,1.10
2019-04-03T15:14:22.859Z,1.10
2019-04-03T15:16:54.000Z,1.23
2019-04-03T15:19:24.927Z,1.30
2019-04-03T15:21:58.905Z,1.33
2019-04-03T15:24:28.033Z,1.10
2019-04-03T15:26:58.873Z,1.40
2019-04-03T15:29:29.568Z,1.40
2019-04-03T15:32:00.646Z,1.27
2019-04-03T15:34:31.882Z,1.60
2019-04-03T15:37:03.069Z,1.33
2019-04-03T15:39:33.821Z,1.77
2019-04-03T15:42:06.443Z,1.20
2019-04-03T15:44:36.872Z,1.00
2019-04-03T15:47:09.319Z,0.77
2019-04-03T15:49:40.072Z,0.80
2019-04-03T15:52:12.013Z,0.60
2019-04-03T15:54:43.130Z,0.90
2019-04-03T15:57:14.387Z,1.23
2019-04-03T15:59:45.733Z,1.50
2019-04-03T16:02:16.855Z,1.10
2019-04-03T16:04:47.790Z,0.80
2019-04-03T16:07:18.478Z,0.60
2019-04-03T16:09:51.157Z,0.40
2019-04-03T16:12:21.352Z,0.40
2019-04-03T16:14:52.321Z,0.93
2019-04-03T16:17:24.044Z,0.80
2019-04-03T16:19:55.208Z,0.40
2019-04-03T16:22:27.131Z,1.37
2019-04-03T16:24:58.276Z,1.23
2019-04-03T16:27:30.045Z,0.53
2019-04-03T16:30:01.209Z,0.63
2019-04-03T16:32:31.771Z,0.30
2019-04-03T16:35:02.815Z,0.60
2019-04-03T16:37:33.606Z,0.30
2019-04-03T16:40:06.051Z,0.30
2019-04-03T16:42:37.316Z,0.53
2019-04-03T16:45:09.373Z,0.63
2019-04-03T16:47:40.255Z,0.50
2019-04-03T16:50:11.840Z,0.50
2019-04-03T16:52:42.672Z,0.50
2019-04-03T16:55:13.883Z,0.60
2019-04-03T16:57:45.829Z,0.30
2019-04-03T17:00:16.513Z,0.30
2019-04-03T17:02:47.199Z,0.50
2019-04-03T17:05:18.483Z,0.50
2019-04-03T17:07:51.195Z,0.50
2019-04-03T17:10:22.137Z,0.30
2019-04-03T17:12:54.718Z,0.53
2019-04-03T17:15:25.252Z,0.63
2019-04-03T17:17:56.200Z,0.83
2019-04-03T17:20:27.312Z,0.70
2019-04-03T17:23:01.231Z,0.90
2019-04-03T17:25:44.185Z,0.90
2019-04-03T17:28:09.146Z,1.30
2019-04-03T17:30:37.196Z,1.23
2019-04-03T17:33:08.491Z,1.10
2019-04-03T17:35:39.520Z,1.20
2019-04-03T17:38:10.466Z,1.20
2019-04-03T17:40:41.084Z,0.83
2019-04-03T17:43:13.078Z,1.10
2019-04-03T17:45:46.182Z,0.80
2019-04-03T17:48:16.422Z,0.93
2019-04-03T17:50:47.181Z,1.10
2019-04-03T17:53:17.708Z,1.20
2019-04-03T17:55:48.565Z,1.23
2019-04-03T17:58:19.396Z,1.10
2019-04-03T18:00:52.165Z,1.50
2019-04-03T18:03:22.492Z,1.23
2019-04-03T18:05:53.194Z,1.30
2019-04-03T18:08:23.957Z,1.40
2019-04-03T18:10:54.513Z,1.10
2019-04-03T18:13:25.419Z,1.30
2019-04-03T18:15:58.548Z,1.00
2019-04-03T18:18:28.776Z,1.23
2019-04-03T18:20:59.243Z,1.07
2019-04-03T18:23:29.729Z,1.00
2019-04-03T18:26:00.329Z,1.17
2019-04-03T18:28:30.824Z,0.93
2019-04-03T18:31:01.296Z,1.07
2019-04-03T18:33:31.947Z,1.30
2019-04-03T18:36:02.840Z,1.23
2019-04-03T18:38:33.612Z,1.30
2019-04-03T18:41:04.353Z,1.37
2019-04-03T18:43:35.244Z,2.10
2019-04-03T18:46:06.036Z,2.00
2019-04-03T18:48:36.902Z,1.60
2019-04-03T18:51:08.111Z,2.10
2019-04-03T18:53:40.617Z,1.70
2019-04-03T18:56:11.392Z,1.20
2019-04-03T18:58:43.954Z,1.40
2019-04-03T19:01:16.942Z,1.93
2019-04-03T19:03:47.036Z,2.23
2019-04-03T19:06:17.797Z,2.03
2019-04-03T19:08:50.005Z,1.40
2019-04-03T19:11:21.305Z,1.90
2019-04-03T19:13:52.315Z,1.60
2019-04-03T19:16:29.508Z,2.00
2019-04-03T19:19:07.159Z,2.20
2019-04-03T19:21:28.716Z,1.80
2019-04-03T19:23:59.862Z,1.50
2019-04-03T19:26:31.798Z,1.47
2019-04-03T19:29:04.756Z,1.67
2019-04-03T19:31:35.476Z,1.33
2019-04-03T19:34:07.407Z,1.37
2019-04-03T19:36:38.053Z,1.10
2019-04-03T19:39:09.195Z,1.50
2019-04-03T19:41:40.967Z,1.93
2019-04-03T19:44:12.928Z,1.70
2019-04-03T19:46:43.956Z,1.30
2019-04-03T19:49:14.604Z,1.20
2019-04-03T19:51:45.622Z,1.10
2019-04-03T19:54:16.763Z,1.87
2019-04-03T19:56:48.283Z,1.37
2019-04-03T19:59:19.093Z,1.60
2019-04-03T20:01:50.133Z,1.80
2019-04-03T20:04:21.086Z,1.83
2019-04-03T20:06:52.930Z,1.80
2019-04-03T20:09:24.542Z,1.70
2019-04-03T20:11:55.310Z,2.20
2019-04-03T20:14:26.022Z,1.80
2019-04-03T20:16:58.465Z,2.13
2019-04-03T20:19:29.124Z,2.10
2019-04-03T20:22:00.029Z,4.23
2019-04-03T20:24:30.925Z,2.37
2019-04-03T20:27:01.749Z,2.30
2019-04-03T20:29:32.656Z,2.40
2019-04-03T20:32:05.056Z,2.70
2019-04-03T20:34:36.106Z,3.00
2019-04-03T20:37:06.812Z,3.00
2019-04-03T20:39:38.645Z,3.67
2019-04-03T20:42:09.213Z,3.20
2019-04-03T20:44:39.983Z,2.57
2019-04-03T20:47:10.694Z,2.40
2019-04-03T20:49:43.582Z,2.63
2019-04-03T20:52:13.561Z,2.20
2019-04-03T20:54:44.082Z,2.67
2019-04-03T20:57:14.946Z,2.50
2019-04-03T20:59:58.387Z,2.43
2019-04-03T21:02:18.242Z,2.30
2019-04-03T21:04:48.963Z,2.13
2019-04-03T21:07:19.587Z,2.07
2019-04-03T21:09:50.477Z,1.83
2019-04-03T21:12:21.240Z,2.00
2019-04-03T21:14:52.139Z,2.20
2019-04-03T21:17:24.092Z,2.10
2019-04-03T21:19:56.141Z,2.10
2019-04-03T21:22:29.554Z,2.00
2019-04-03T21:24:59.189Z,2.50
2019-04-03T21:27:29.896Z,2.60
2019-04-03T21:30:00.736Z,2.33
2019-04-03T21:32:38.222Z,2.47
2019-04-03T21:35:08.133Z,2.27
2019-04-03T21:37:40.408Z,2.40
2019-04-03T21:40:14.737Z,2.57
2019-04-03T21:42:44.680Z,2.43
2019-04-03T21:45:15.543Z,2.53
2019-04-03T21:47:46.589Z,2.93
2019-04-03T21:50:19.266Z,3.20
2019-04-03T21:52:49.733Z,2.73
2019-04-03T21:55:20.496Z,3.13
2019-04-03T22:01:18.328Z,3.70
2019-04-03T22:03:51.361Z,3.30
2019-04-03T22:06:21.831Z,3.90
2019-04-03T22:08:52.694Z,3.37
2019-04-03T22:11:23.496Z,3.83
2019-04-03T22:13:54.254Z,4.07
2019-04-03T22:16:24.970Z,3.57
2019-04-03T22:18:55.756Z,3.97
2019-04-03T22:21:26.562Z,3.87
2019-04-03T22:23:57.160Z,4.13
2019-04-03T22:26:28.241Z,3.90
2019-04-03T22:28:59.741Z,4.70
2019-04-03T22:31:30.508Z,4.60
2019-04-03T22:34:01.195Z,4.60
2019-04-03T22:36:33.373Z,4.77
2019-04-03T22:39:06.020Z,5.33
2019-04-03T22:41:38.375Z,5.50
2019-04-03T22:44:09.083Z,5.20
2019-04-03T22:46:40.032Z,6.27
2019-04-03T22:49:10.576Z,5.30
2019-04-03T22:51:41.530Z,5.50
2019-04-03T22:54:12.683Z,5.70
2019-04-03T22:56:44.160Z,6.03
2019-04-03T22:59:14.855Z,6.33
2019-04-03T23:01:46.000Z,6.73
2019-04-03T23:04:17.000Z,6.40
2019-04-03T23:06:49.377Z,6.40
2019-04-03T23:09:20.102Z,6.33
2019-04-03T23:11:50.949Z,6.30
2019-04-03T23:14:22.784Z,7.03
2019-04-03T23:16:53.753Z,6.13
2019-04-03T23:19:24.564Z,5.67
2019-04-03T23:21:55.441Z,6.10
2019-04-03T23:24:28.634Z,5.97
2019-04-03T23:26:58.616Z,5.77
2019-04-03T23:29:29.337Z,6.43
2019-04-03T23:32:00.188Z,5.97
2019-04-03T23:34:30.798Z,6.90
2019-04-03T23:37:01.553Z,5.87
2019-04-03T23:39:32.292Z,5.93
2019-04-03T23:42:03.059Z,6.60
2019-04-03T23:44:33.627Z,5.53
2019-04-03T23:47:04.585Z,5.47
2019-04-03T23:49:35.308Z,5.13
2019-04-03T23:52:06.053Z,5.33
2019-04-03T23:54:36.899Z,5.40
2019-04-03T23:57:09.559Z,5.73
2019-04-03T23:59:40.110Z,5.40
